Aviation Digital Data Service (ADDS)

Output produced by METARs form (0955 UTC 28 September 2021)
found at http://www.aviationweather.gov/metar/data/
 
KMSP 280953Z 13005KT 10SM CLR 14/10 A2993 RMK AO2 SLP134 T01390100
KMSP 280909Z 2809/2912 14005KT P6SM SKC 
     FM281400 15007KT P6SM SKC 
     FM281800 16011KT P6SM SKC 
     FM290000 14007KT P6SM FEW250
       
KRNH 280935Z AUTO 00000KT 10SM CLR 11/08 A2995 RMK AO2 T01050083
KRNH 280915Z AUTO 12004KT 10SM CLR 10/08 A2994 RMK AO2 T01010080
KRNH 280520Z 2806/2906 VRB03KT P6SM SKC 
     FM281400 16006KT P6SM SKC 
     FM281800 16009KT P6SM SKC 
     FM290000 14006KT P6SM FEW250